Time;durP1;ratioP1;P1;durP2;ratioP2;P2;SDS_P1;SDS_P2;PMS_P1;PMS_P2;Temp;Humidity;BMP_temperature;BMP_pressure;BME280_temperature;BME280_humidity;BME280_pressure;Samples;Min_cycle;Max_cycle;Signal;HPM_P1;HPM_P2
2023/01/22 00:02:50;;;;;;;;;0.67;0.00;;;;;12.29;57.50;100957.91;146618;602;46914;-73
2023/01/22 00:05:45;;;;;;;;;0.67;0.00;;;;;12.20;57.51;100966.16;146622;627;46020;-72
2023/01/22 00:08:48;;;;;;;;;0.00;0.00;;;;;12.13;57.95;100979.69;146618;564;47016;-71
2023/01/22 00:11:43;;;;;;;;;0.67;0.00;;;;;12.10;57.84;100976.94;146611;625;46020;-70
2023/01/22 00:14:48;;;;;;;;;0.00;0.00;;;;;12.08;57.39;100985.47;146620;637;46012;-78
2023/01/22 00:17:40;;;;;;;;;1.00;0.00;;;;;12.08;57.67;100990.66;146623;607;46011;-78
2023/01/22 00:20:41;;;;;;;;;9.00;7.00;;;;;12.09;57.78;100992.47;146617;638;46012;-79
2023/01/22 00:23:34;;;;;;;;;5.00;3.50;;;;;12.13;57.37;100991.78;146621;707;46021;-80
2023/01/22 00:26:32;;;;;;;;;9.00;8.75;;;;;12.15;57.85;100996.25;146621;586;46012;-79
2023/01/22 00:29:34;;;;;;;;;10.25;9.50;;;;;12.11;57.89;100993.41;146620;609;46010;-81
2023/01/22 00:32:36;;;;;;;;;6.75;6.00;;;;;12.11;57.92;100996.87;146619;575;46017;-81
2023/01/22 00:35:34;;;;;;;;;7.00;5.50;;;;;12.08;57.88;100998.44;146617;565;47010;-80
2023/01/22 00:38:36;;;;;;;;;6.00;6.00;;;;;12.08;57.67;101008.84;146619;625;46017;-80
2023/01/22 00:41:36;;;;;;;;;0.00;0.00;;;;;12.08;56.94;101003.66;146613;600;46010;-81
2023/01/22 00:44:28;;;;;;;;;0.00;0.00;;;;;12.02;57.03;101005.16;146616;564;46016;-74
2023/01/22 00:47:34;;;;;;;;;0.00;0.00;;;;;11.97;57.06;101004.03;146619;614;47010;-71
2023/01/22 00:50:27;;;;;;;;;0.75;0.75;;;;;11.92;57.28;101012.41;146617;669;46012;-72
2023/01/22 00:53:22;;;;;;;;;1.50;1.00;;;;;11.89;57.29;101007.94;146619;571;46021;-71
2023/01/22 00:56:38;;;;;;;;;2.00;0.25;;;;;11.85;57.31;101010.31;146617;579;46014;-71
2023/01/22 00:59:30;;;;;;;;;3.75;2.00;;;;;11.82;56.97;101017.91;146620;631;46010;-71
2023/01/22 01:02:29;;;;;;;;;2.25;1.00;;;;;11.76;56.91;101013.28;146617;621;46913;-72
2023/01/22 01:05:32;;;;;;;;;0.00;0.00;;;;;11.68;57.29;101020.72;146621;573;46020;-72
2023/01/22 01:08:27;;;;;;;;;0.00;0.00;;;;;11.56;57.43;101020.97;146618;689;46031;-74
2023/01/22 01:11:35;;;;;;;;;2.75;1.50;;;;;11.47;57.63;101011.81;146615;643;46010;-74
2023/01/22 01:14:30;;;;;;;;;5.50;5.00;;;;;11.41;57.93;101011.47;146618;603;46012;-73
2023/01/22 01:17:31;;;;;;;;;10.25;7.75;;;;;11.35;57.88;101016.34;146619;641;46021;-72
2023/01/22 01:20:38;;;;;;;;;7.50;6.50;;;;;11.28;57.77;101018.62;146619;563;46012;-74
2023/01/22 01:23:42;;;;;;;;;7.25;7.25;;;;;11.25;57.87;101017.56;146621;629;46021;-74
2023/01/22 01:26:43;;;;;;;;;6.50;6.00;;;;;11.24;57.70;101021.84;146618;571;46014;-73
2023/01/22 01:29:35;;;;;;;;;7.75;6.00;;;;;11.21;58.14;101023.41;146620;602;46021;-74
2023/01/22 01:32:14;;;;;;;;;18.00;13.75;;;;;11.15;57.82;101021.34;146702;564;46022;-76
2023/01/22 01:35:13;;;;;;;;;3.50;2.75;;;;;11.08;58.31;101014.06;146614;585;46012;-74
2023/01/22 01:38:10;;;;;;;;;3.00;1.75;;;;;10.99;57.94;101010.97;146620;582;46011;-74
2023/01/22 01:41:26;;;;;;;;;4.75;4.25;;;;;10.92;58.10;101009.75;146618;569;47012;-74
2023/01/22 01:44:28;;;;;;;;;7.75;6.25;;;;;10.79;58.96;101007.31;146623;564;46027;-74
2023/01/22 01:47:38;;;;;;;;;28.50;26.75;;;;;10.63;58.82;101009.06;146614;606;47012;-74
2023/01/22 01:50:34;;;;;;;;;29.50;24.50;;;;;10.60;59.43;101008.88;146615;588;46020;-75
2023/01/22 01:53:39;;;;;;;;;13.00;12.00;;;;;10.59;59.20;101016.56;146613;602;46017;-75
2023/01/22 01:56:51;;;;;;;;;16.75;12.25;;;;;10.52;59.07;101014.44;146616;599;47010;-75
2023/01/22 02:00:04;;;;;;;;;4.50;3.25;;;;;10.44;58.90;101019.22;146612;568;47012;-75
2023/01/22 02:03:01;;;;;;;;;3.25;3.25;;;;;10.35;59.19;101016.09;146616;639;47020;-75
2023/01/22 02:05:58;;;;;;;;;5.25;4.75;;;;;10.28;59.61;101022.63;146618;612;46012;-74
2023/01/22 02:08:56;;;;;;;;;7.75;7.25;;;;;10.21;60.43;101015.25;146622;567;47010;-75
2023/01/22 02:11:55;;;;;;;;;11.75;9.50;;;;;10.06;60.42;101016.97;146619;578;46012;-75
2023/01/22 02:14:53;;;;;;;;;20.75;16.50;;;;;9.94;61.22;101022.34;146622;581;46020;-78
2023/01/22 02:17:52;;;;;;;;;29.25;24.75;;;;;9.89;61.12;101022.06;146609;566;46016;-83
2023/01/22 02:20:56;;;;;;;;;24.75;20.50;;;;;9.83;60.82;101015.63;146614;579;46020;-82
2023/01/22 02:23:50;;;;;;;;;5.75;5.00;;;;;9.81;60.85;101027.59;146612;588;46033;-82
2023/01/22 02:26:46;;;;;;;;;7.00;5.75;;;;;9.83;60.37;101034.66;146620;580;47010;-78
2023/01/22 02:29:53;;;;;;;;;5.00;5.00;;;;;9.86;60.04;101037.44;146617;587;47012;-75
2023/01/22 02:32:49;;;;;;;;;5.25;4.00;;;;;9.88;60.56;101032.34;146617;625;46021;-75
2023/01/22 02:35:50;;;;;;;;;5.50;5.25;;;;;9.88;60.08;101042.72;146616;565;46016;-75
2023/01/22 02:38:46;;;;;;;;;13.50;11.00;;;;;9.82;60.54;101050.13;146622;577;46012;-76
2023/01/22 02:41:41;;;;;;;;;12.75;10.75;;;;;9.78;60.22;101048.13;146608;594;46014;-77
2023/01/22 02:44:38;;;;;;;;;17.50;14.75;;;;;9.72;61.21;101053.87;146612;624;46010;-74
2023/01/22 02:47:32;;;;;;;;;11.25;10.75;;;;;9.58;61.45;101049.53;146611;574;46911;-73
2023/01/22 02:50:38;;;;;;;;;22.75;20.25;;;;;9.49;61.29;101050.75;146614;575;46020;-72
2023/01/22 02:53:33;;;;;;;;;20.25;18.75;;;;;9.41;62.33;101052.00;146610;564;46016;-77
2023/01/22 02:56:40;;;;;;;;;15.25;14.00;;;;;9.34;62.62;101048.94;146614;613;46020;-77
2023/01/22 02:59:38;;;;;;;;;16.50;15.25;;;;;9.29;63.13;101053.84;146610;596;46016;-76
2023/01/22 03:02:30;;;;;;;;;24.50;19.25;;;;;9.25;63.19;101055.34;146612;593;46034;-77
2023/01/22 03:05:37;;;;;;;;;13.50;11.50;;;;;9.26;62.99;101058.84;146609;596;46016;-73
2023/01/22 03:08:31;;;;;;;;;23.75;20.00;;;;;9.23;62.69;101051.75;146612;594;46030;-74
2023/01/22 03:11:31;;;;;;;;;32.25;25.00;;;;;9.19;63.00;101049.81;146609;615;47016;-77
2023/01/22 03:21:18;;;;;;;;;28.00;25.00;;;;;8.93;64.67;101055.03;146614;602;46020;-77
2023/01/22 03:24:13;;;;;;;;;14.75;10.00;;;;;8.94;64.06;101060.31;146611;570;46013;-72
2023/01/22 03:27:09;;;;;;;;;14.50;11.50;;;;;8.96;64.68;101057.81;146615;579;46020;-74
2023/01/22 03:30:04;;;;;;;;;17.25;13.00;;;;;8.93;64.31;101061.09;146609;605;46017;-75
2023/01/22 03:33:03;;;;;;;;;24.00;21.75;;;;;8.92;64.45;101068.78;146611;643;46020;-78
2023/01/22 03:35:56;;;;;;;;;16.75;12.50;;;;;8.84;65.34;101068.25;146609;656;47012;-78
2023/01/22 03:38:55;;;;;;;;;11.50;10.25;;;;;8.75;64.61;101068.59;146615;565;46021;-80
2023/01/22 03:41:48;;;;;;;;;17.75;16.50;;;;;8.67;64.93;101069.78;146612;647;46016;-79
2023/01/22 03:44:47;;;;;;;;;10.00;7.75;;;;;8.58;65.83;101076.94;146613;603;46021;-79
2023/01/22 03:47:53;;;;;;;;;10.00;7.00;;;;;8.46;65.48;101070.97;146620;596;46012;-78
2023/01/22 03:51:01;;;;;;;;;;;;;;;;;;;;;
2023/01/22 03:53:57;;;;;;;;;7.75;5.25;;;;;8.42;66.02;101077.66;146618;579;46911;-76
2023/01/22 03:56:51;;;;;;;;;11.50;11.00;;;;;8.43;66.79;101086.28;146623;563;46010;-76
2023/01/22 03:59:43;;;;;;;;;6.50;6.50;;;;;8.42;66.71;101085.41;146612;670;46017;-76
2023/01/22 04:02:55;;;;;;;;;;;;;;;;;;;;;
2023/01/22 04:05:59;;;;;;;;;6.00;4.25;;;;;8.38;67.11;101093.75;146617;605;46018;-79
2023/01/22 04:09:06;;;;;;;;;7.00;6.50;;;;;8.38;66.92;101098.91;146620;589;46021;-72
2023/01/22 04:12:04;;;;;;;;;8.50;6.75;;;;;8.43;66.55;101094.94;146616;565;46012;-72
2023/01/22 04:14:59;;;;;;;;;11.25;9.00;;;;;8.45;66.56;101102.78;146619;630;46021;-73
2023/01/22 04:17:58;;;;;;;;;11.00;8.50;;;;;8.44;66.51;101098.41;146617;563;46016;-73
2023/01/22 04:20:57;;;;;;;;;7.75;7.00;;;;;8.43;66.14;101102.69;146623;691;46010;-73
2023/01/22 04:23:52;;;;;;;;;10.75;8.25;;;;;8.42;65.98;101102.59;146617;592;46016;-74
2023/01/22 04:27:03;;;;;;;;;7.75;5.25;;;;;8.38;65.32;101091.16;146622;572;46012;-78
2023/01/22 04:29:57;;;;;;;;;5.25;5.00;;;;;8.45;65.99;101106.28;146618;616;46013;-77
2023/01/22 04:32:56;;;;;;;;;5.00;3.75;;;;;8.40;66.51;101101.59;146618;585;46010;-71
2023/01/22 04:35:53;;;;;;;;;12.50;9.50;;;;;8.41;66.79;101101.72;146614;587;46012;-72
2023/01/22 04:38:56;;;;;;;;;5.00;5.00;;;;;8.44;65.94;101113.91;146615;623;46021;-74
2023/01/22 04:42:00;;;;;;;;;7.00;4.75;;;;;8.40;65.32;101106.75;146612;597;46016;-75
2023/01/22 04:44:53;;;;;;;;;2.50;2.50;;;;;8.45;65.20;101115.72;146618;724;46034;-75
2023/01/22 04:48:01;;;;;;;;;5.00;4.00;;;;;8.44;64.32;101113.91;146611;574;46016;-73
2023/01/22 04:51:05;;;;;;;;;3.25;2.25;;;;;8.41;64.54;101114.63;146615;600;46013;-74
2023/01/22 04:54:08;;;;;;;;;5.00;5.00;;;;;8.39;65.38;101128.22;146612;603;46016;-73
2023/01/22 04:56:48;;;;;;;;;3.50;2.00;;;;;8.25;67.10;101124.69;146713;575;46013;-74
2023/01/22 04:59:56;;;;;;;;;1.75;1.25;;;;;8.21;65.83;101133.91;146623;617;46016;-74
2023/01/22 05:03:00;;;;;;;;;1.75;1.75;;;;;8.21;65.68;101149.41;146631;599;46010;-74
2023/01/22 05:05:58;;;;;;;;;1.00;1.00;;;;;8.27;65.30;101154.09;146621;571;46016;-74
2023/01/22 05:08:56;;;;;;;;;3.00;3.00;;;;;8.24;65.60;101152.22;146629;608;46020;-72
2023/01/22 05:11:58;;;;;;;;;4.50;3.25;;;;;8.18;65.50;101153.47;146624;576;46017;-72
2023/01/22 05:14:37;;;;;;;;;1.00;1.00;;;;;8.12;67.42;101151.38;146705;568;46013;-70
2023/01/22 05:17:40;;;;;;;;;2.00;2.00;;;;;8.08;66.50;101162.31;146621;611;46012;-71
2023/01/22 05:20:38;;;;;;;;;2.00;2.00;;;;;7.97;66.72;101156.38;146621;578;46020;-72
2023/01/22 05:23:33;;;;;;;;;2.25;1.75;;;;;7.91;66.68;101152.50;146619;648;47012;-70
2023/01/22 05:26:28;;;;;;;;;0.50;0.50;;;;;7.91;67.03;101162.81;146618;682;47020;-70
2023/01/22 05:29:26;;;;;;;;;1.50;1.50;;;;;7.94;66.57;101165.63;146619;609;46013;-71
2023/01/22 05:32:21;;;;;;;;;0.00;0.00;;;;;7.97;66.24;101173.56;146623;618;46010;-70
2023/01/22 05:35:22;;;;;;;;;1.00;1.00;;;;;8.05;65.90;101175.91;146617;683;46036;-70
2023/01/22 05:38:19;;;;;;;;;1.00;1.00;;;;;8.13;65.96;101176.44;146619;619;46021;-70
2023/01/22 05:41:18;;;;;;;;;1.75;1.75;;;;;8.07;66.10;101174.31;146618;580;46014;-70
2023/01/22 05:44:20;;;;;;;;;2.25;2.00;;;;;7.99;66.74;101175.47;146618;574;46020;-70
2023/01/22 05:47:22;;;;;;;;;2.75;2.75;;;;;7.93;66.59;101176.75;146618;618;46016;-70
2023/01/22 05:50:26;;;;;;;;;1.00;1.00;;;;;7.91;66.50;101181.78;146620;646;46025;-70
2023/01/22 05:53:19;;;;;;;;;2.00;2.00;;;;;7.94;66.71;101178.53;146617;610;46012;-69
2023/01/22 05:56:22;;;;;;;;;2.75;2.75;;;;;7.94;66.41;101183.69;146621;673;46010;-69
2023/01/22 05:59:15;;;;;;;;;3.00;3.00;;;;;7.92;67.49;101188.75;146615;585;46025;-69
2023/01/22 06:02:09;;;;;;;;;3.75;2.75;;;;;7.93;67.04;101198.28;146622;613;46020;-70
2023/01/22 06:05:05;;;;;;;;;8.50;3.50;;;;;7.99;66.89;101203.00;146617;582;46016;-69
2023/01/22 06:08:08;;;;;;;;;3.50;2.00;;;;;8.07;66.61;101205.31;146622;576;46010;-70
2023/01/22 06:11:21;;;;;;;;;2.75;1.00;;;;;8.12;64.98;101204.72;146617;743;46016;-69
2023/01/22 06:14:15;;;;;;;;;3.50;2.25;;;;;8.22;65.67;101218.38;146623;662;46021;-69
2023/01/22 06:17:16;;;;;;;;;3.25;3.00;;;;;8.34;66.57;101221.78;146619;624;46012;-69
2023/01/22 06:20:16;;;;;;;;;12.00;8.25;;;;;8.82;67.40;101229.31;146624;613;46020;-69
2023/01/22 06:23:24;;;;;;;;;4.25;4.00;;;;;9.79;65.33;101233.81;146617;622;46016;-70
2023/01/22 06:26:28;;;;;;;;;4.25;3.25;;;;;10.97;64.29;101236.66;146624;658;46010;-71
2023/01/22 06:29:35;;;;;;;;;3.75;3.75;;;;;12.24;59.72;101241.09;146617;671;46016;-71
2023/01/22 06:32:39;;;;;;;;;7.25;6.00;;;;;13.43;58.33;101247.03;146623;567;46010;-72
2023/01/22 06:35:37;;;;;;;;;4.50;2.75;;;;;14.65;54.67;101246.56;146619;589;46012;-72
2023/01/22 06:38:32;;;;;;;;;4.75;4.75;;;;;15.81;51.30;101248.69;146618;600;46020;-73
2023/01/22 06:41:28;;;;;;;;;11.00;10.00;;;;;16.82;48.97;101259.34;146615;569;46917;-74
2023/01/22 06:44:37;;;;;;;;;7.50;7.25;;;;;17.53;48.03;101262.56;146614;582;46021;-74
2023/01/22 06:47:30;;;;;;;;;8.25;7.75;;;;;18.13;45.23;101267.03;146614;619;47012;-72
2023/01/22 06:50:31;;;;;;;;;15.00;12.25;;;;;18.79;44.53;101271.53;146618;604;46020;-74
2023/01/22 06:53:36;;;;;;;;;28.75;25.25;;;;;19.39;43.25;101276.56;146609;650;46016;-73
2023/01/22 06:56:21;;;;;;;;;39.00;32.00;;;;;19.89;42.18;101278.63;146703;569;46012;-72
2023/01/22 06:59:13;;;;;;;;;45.75;37.25;;;;;19.79;41.29;101204.72;146612;605;46016;-72
2023/01/22 07:02:22;;;;;;;;;41.75;34.50;;;;;20.44;42.76;101275.38;146615;564;46020;-71
2023/01/22 07:05:28;;;;;;;;;35.25;31.00;;;;;20.40;41.73;101293.72;146607;637;46916;-71
2023/01/22 07:08:31;;;;;;;;;26.00;22.50;;;;;20.15;40.99;101289.69;146613;576;46020;-73
2023/01/22 07:11:27;;;;;;;;;31.50;24.75;;;;;19.97;40.49;101293.72;146611;564;46017;-74
2023/01/22 07:14:36;;;;;;;;;32.50;30.00;;;;;19.70;43.17;101293.09;146614;660;46031;-73
2023/01/22 07:17:36;;;;;;;;;34.50;29.25;;;;;19.55;40.99;101299.72;146608;581;46017;-73
2023/01/22 07:20:36;;;;;;;;;33.25;29.50;;;;;19.41;41.78;101305.50;146616;622;46010;-74
2023/01/22 07:23:36;;;;;;;;;30.50;27.75;;;;;19.28;42.38;101299.97;146608;700;46016;-73
2023/01/22 07:26:41;;;;;;;;;;;;;;;;;;;;;
2023/01/22 07:29:43;;;;;;;;;19.25;17.25;;;;;19.37;41.62;101291.41;146612;758;46012;-74
2023/01/22 07:32:37;;;;;;;;;20.00;17.75;;;;;19.32;42.33;101290.41;146611;574;46021;-71
2023/01/22 07:35:35;;;;;;;;;19.75;18.00;;;;;19.24;42.78;101292.84;146607;569;46016;-71
2023/01/22 07:38:35;;;;;;;;;32.75;28.75;;;;;19.08;42.46;101293.31;146611;595;47010;-72
2023/01/22 07:41:38;;;;;;;;;40.25;32.00;;;;;18.83;43.77;101297.03;146609;597;46917;-73
2023/01/22 07:44:39;;;;;;;;;39.50;31.75;;;;;18.62;44.30;101294.69;146614;620;46020;-72
2023/01/22 07:47:21;;;;;;;;;20.25;19.00;;;;;18.44;43.31;101301.22;146705;581;46015;-72
2023/01/22 07:50:28;;;;;;;;;19.50;17.25;;;;;17.99;45.14;101304.25;146615;608;46016;-76
2023/01/22 07:53:22;;;;;;;;;18.50;16.00;;;;;17.62;44.11;101309.19;146618;583;45020;-74
2023/01/22 07:56:21;;;;;;;;;18.75;16.75;;;;;17.23;43.95;101297.47;146610;589;46017;-75
2023/01/22 07:59:16;;;;;;;;;15.00;14.00;;;;;16.91;45.70;101311.19;146613;648;46020;-77
2023/01/22 08:02:18;;;;;;;;;24.50;22.25;;;;;16.67;46.82;101312.06;146610;608;46915;-80
2023/01/22 08:05:37;;;;;;;;;18.75;16.75;;;;;16.53;48.53;101313.28;146615;642;46010;-77
2023/01/22 08:08:42;;;;;;;;;22.75;17.50;;;;;16.46;47.96;101316.53;146610;563;47016;-79
2023/01/22 08:11:42;;;;;;;;;19.25;17.00;;;;;16.43;47.77;101316.41;146616;589;46010;-77
2023/01/22 08:14:37;;;;;;;;;22.00;19.75;;;;;16.47;48.33;101311.34;146611;581;46016;-73
2023/01/22 08:17:34;;;;;;;;;27.50;20.75;;;;;16.58;48.17;101311.75;146615;573;46020;-74
2023/01/22 08:20:40;;;;;;;;;21.00;18.00;;;;;16.71;49.40;101307.84;146611;576;46016;-75
2023/01/22 08:23:35;;;;;;;;;24.00;20.75;;;;;16.93;48.29;101306.88;146612;614;47010;-80
2023/01/22 08:26:38;;;;;;;;;;;;;;;;;;;;;
2023/01/22 08:29:42;;;;;;;;;31.50;26.50;;;;;17.21;46.83;101306.09;146615;617;46020;-74
2023/01/22 08:32:40;;;;;;;;;25.25;22.75;;;;;17.22;48.23;101303.50;146610;608;46016;-73
2023/01/22 08:35:50;;;;;;;;;29.50;23.00;;;;;16.16;50.71;101107.84;146614;584;46010;-70
2023/01/22 08:38:56;;;;;;;;;234.00;197.00;;;;;17.45;48.91;101306.91;146611;637;46016;-70
2023/01/22 08:41:56;;;;;;;;;141.33;114.00;;;;;17.50;47.77;101305.31;146615;633;46021;-70
2023/01/22 08:44:49;;;;;;;;;30.25;28.00;;;;;17.46;47.46;101306.06;146615;633;46016;-76
2023/01/22 08:47:42;;;;;;;;;23.50;21.25;;;;;17.38;47.09;101325.88;146615;577;46021;-74
2023/01/22 08:50:43;;;;;;;;;23.50;20.50;;;;;17.31;48.58;101316.94;146713;569;46023;-74
2023/01/22 08:53:39;;;;;;;;;24.00;20.75;;;;;17.35;46.68;101324.87;146610;616;47016;-75
2023/01/22 08:56:49;;;;;;;;;;;;;;;;;;;;;
2023/01/22 08:59:44;;;;;;;;;16.75;16.00;;;;;17.25;47.68;101316.72;146613;606;46012;-75
2023/01/22 09:02:47;;;;;;;;;25.75;22.00;;;;;17.31;48.13;101322.16;146616;617;46010;-73
2023/01/22 09:05:43;;;;;;;;;24.25;21.00;;;;;17.44;47.94;101310.34;146614;659;46012;-74
2023/01/22 09:08:38;;;;;;;;;31.75;26.50;;;;;17.58;46.97;101307.31;146616;610;46020;-75
2023/01/22 09:11:37;;;;;;;;;15.25;15.25;;;;;17.76;48.05;101310.50;146612;580;46014;-74
2023/01/22 09:14:42;;;;;;;;;13.50;12.25;;;;;17.96;46.83;101316.41;146621;678;46010;-74
2023/01/22 09:17:41;;;;;;;;;4.00;2.00;;;;;18.13;45.15;101319.53;146620;571;46014;-74
2023/01/22 09:20:42;;;;;;;;;4.00;4.00;;;;;18.24;44.89;101303.25;146627;661;46021;-74
2023/01/22 09:23:41;;;;;;;;;6.00;5.00;;;;;18.34;44.60;101314.03;146622;668;46016;-74
2023/01/22 09:26:36;;;;;;;;;7.50;7.00;;;;;18.43;44.14;101312.53;146629;717;46010;-73
2023/01/22 09:29:38;;;;;;;;;4.00;4.00;;;;;18.49;44.29;101308.31;146626;573;46012;-75
2023/01/22 09:32:30;;;;;;;;;3.25;3.25;;;;;18.58;43.98;101305.97;146629;647;46020;-75
2023/01/22 09:35:26;;;;;;;;;2.00;1.00;;;;;18.68;43.98;101301.00;146626;648;46015;-74
2023/01/22 09:38:26;;;;;;;;;1.00;1.00;;;;;18.78;43.45;101301.28;146628;580;46020;-75
2023/01/22 09:41:49;;;;;;;;;2.00;2.00;;;;;18.84;44.88;101298.81;146624;579;46012;-76
2023/01/22 09:45:11;;;;;;;;;1.67;1.00;;;;;18.96;44.32;101301.75;146627;653;46021;-74
2023/01/22 09:48:08;;;;;;;;;3.67;2.67;;;;;18.96;43.34;101293.00;146627;618;46016;-76
2023/01/22 09:51:09;;;;;;;;;4.33;2.67;;;;;18.86;45.12;101294.50;146622;663;46010;-75
2023/01/22 09:54:11;;;;;;;;;4.67;3.67;;;;;18.83;44.16;101292.66;146622;579;46012;-76
2023/01/22 09:57:23;;;;;;;;;3.67;2.67;;;;;18.81;44.31;101293.47;146618;572;46021;-77
2023/01/22 10:00:56;;;;;;;;;2.33;2.00;;;;;18.21;46.24;101194.66;146616;611;46016;-73
2023/01/22 10:04:06;;;;;;;;;2.00;1.00;;;;;18.60;45.81;101278.91;146624;594;46010;-75
2023/01/22 10:07:08;;;;;;;;;2.00;1.00;;;;;18.51;42.98;101277.75;146621;630;46012;-76
2023/01/22 10:10:22;;;;;;;;;1.00;1.00;;;;;18.44;44.88;101274.03;146623;597;46012;-76
2023/01/22 10:13:46;;;;;;;;;3.33;1.00;;;;;18.03;46.35;101186.28;146621;580;47012;-75
2023/01/22 10:16:44;;;;;;;;;0.00;0.00;;;;;18.54;44.65;101265.59;146622;604;46020;-74
2023/01/22 10:19:51;;;;;;;;;9.00;8.25;;;;;18.60;45.73;101267.50;146620;580;46013;-76
2023/01/22 10:22:47;;;;;;;;;4.33;2.00;;;;;18.59;42.99;101257.81;146624;646;46010;-74
2023/01/22 10:25:50;;;;;;;;;1.67;1.67;;;;;18.52;45.01;101264.66;146620;627;46012;-76
2023/01/22 10:28:56;;;;;;;;;3.00;2.00;;;;;18.55;45.12;101266.47;146625;580;46012;-76
2023/01/22 10:32:27;;;;;;;;;4.00;3.00;;;;;18.51;45.28;101270.75;146620;590;46014;-74
2023/01/22 10:35:32;;;;;;;;;2.00;0.33;;;;;18.36;42.56;101258.09;146623;662;46011;-74
2023/01/22 10:38:35;;;;;;;;;0.00;0.00;;;;;18.26;44.87;101261.31;146621;650;46012;-74
2023/01/22 10:41:33;;;;;;;;;0.00;0.00;;;;;18.23;44.21;101263.84;146616;564;47021;-75
2023/01/22 10:44:32;;;;;;;;;1.00;0.00;;;;;18.11;44.80;101266.12;146700;563;46022;-75
2023/01/22 10:47:52;;;;;;;;;3.33;2.67;;;;;18.02;45.22;101256.22;146619;565;46016;-75
2023/01/22 10:51:08;;;;;;;;;2.67;1.67;;;;;17.94;44.28;101266.53;146616;588;48012;-76
2023/01/22 10:54:21;;;;;;;;;5.00;2.00;;;;;17.99;45.97;101259.66;146616;581;47012;-76
2023/01/22 10:58:01;;;;;;;;;1.00;1.00;;;;;18.23;46.54;101256.84;146622;631;47010;-76
2023/01/22 11:01:41;;;;;;;;;1.00;0.00;;;;;18.49;46.58;101245.31;146618;600;47013;-75
2023/01/22 11:04:59;;;;;;;;;0.00;0.00;;;;;18.60;44.36;101244.75;146616;602;49031;-77
2023/01/22 11:08:17;;;;;;;;;0.00;0.00;;;;;18.21;44.09;101164.03;146616;586;46017;-74
2023/01/22 11:11:13;;;;;;;;;1.00;0.33;;;;;18.81;42.97;101238.28;146625;644;46020;-76
2023/01/22 11:14:44;;;;;;;;;1.33;0.00;;;;;18.87;44.69;101243.72;146613;587;48016;-73
2023/01/22 11:18:08;;;;;;;;;0.00;0.00;;;;;18.93;44.30;101250.00;146622;682;47010;-75
2023/01/22 11:21:45;;;;;;;;;1.00;1.00;;;;;19.02;45.14;101235.34;146619;570;47012;-76
2023/01/22 11:24:54;;;;;;;;;0.00;0.00;;;;;19.08;40.91;101241.62;146623;577;47010;-76
2023/01/22 11:28:31;;;;;;;;;3.00;2.00;;;;;19.11;44.61;101246.97;146615;619;47014;-75
2023/01/22 11:31:56;;;;;;;;;3.00;2.00;;;;;19.29;41.59;101248.28;146621;600;46033;-74
2023/01/22 11:35:19;;;;;;;;;0.00;0.00;;;;;19.44;41.83;101246.00;146618;629;46912;-77
2023/01/22 11:38:54;;;;;;;;;9.50;7.75;;;;;19.46;38.88;101231.13;146622;582;46010;-76
2023/01/22 11:42:21;;;;;;;;;1.00;1.00;;;;;19.37;43.34;101229.16;146619;656;46910;-75
2023/01/22 11:45:52;;;;;;;;;1.00;1.00;;;;;19.47;43.29;101226.75;146623;573;46011;-78
2023/01/22 11:49:15;;;;;;;;;1.67;1.67;;;;;19.51;42.29;101216.34;146615;587;46034;-74
2023/01/22 11:52:47;;;;;;;;;3.33;2.00;;;;;19.63;40.66;101213.13;146617;613;46912;-76
2023/01/22 11:56:27;;;;;;;;;0.00;0.00;;;;;18.34;40.49;100988.47;146617;576;46018;-76
2023/01/22 12:00:05;;;;;;;;;1.00;1.00;;;;;19.31;40.55;101131.75;146623;594;46021;-76
2023/01/22 12:03:24;;;;;;;;;1.00;0.00;;;;;19.77;41.94;101218.69;146620;664;45910;-78
2023/01/22 12:07:19;;;;;;;;;1.33;0.00;;;;;19.15;41.93;101109.47;146621;635;46020;-76
2023/01/22 12:10:58;;;;;;;;;0.00;0.00;;;;;19.79;42.64;101231.03;146618;573;46016;-75
2023/01/22 12:14:31;;;;;;;;;3.33;1.00;;;;;19.34;41.79;101117.78;146622;581;46010;-77
2023/01/22 12:18:26;;;;;;;;;3.25;2.50;;;;;19.34;42.50;101110.78;146616;621;46016;-75
2023/01/22 12:21:58;;;;;;;;;1.00;1.00;;;;;19.42;42.56;101117.97;146622;577;46010;-75
2023/01/22 12:25:26;;;;;;;;;0.33;0.00;;;;;19.47;42.53;101104.06;146614;596;46034;-75
2023/01/22 12:28:55;;;;;;;;;4.00;0.00;;;;;20.16;38.14;101208.12;146623;726;46020;-75
2023/01/22 12:32:17;;;;;;;;;6.67;5.67;;;;;20.04;41.89;101197.34;146703;564;46014;-76
2023/01/22 12:35:36;;;;;;;;;0.00;0.00;;;;;19.05;40.91;101031.28;146620;633;47041;-75
2023/01/22 12:39:02;;;;;;;;;0.00;0.00;;;;;20.19;40.24;101213.44;146622;564;46021;-76
2023/01/22 12:42:30;;;;;;;;;0.00;0.00;;;;;19.84;40.75;101139.94;146618;579;46016;-75
2023/01/22 12:45:50;;;;;;;;;0.00;0.00;;;;;20.40;39.28;101220.84;146614;564;47021;-78
2023/01/22 12:49:09;;;;;;;;;0.00;0.00;;;;;20.46;39.51;101218.31;146618;582;47016;-76
2023/01/22 12:52:01;;;;;;;;;0.00;0.00;;;;;20.50;37.99;101208.75;146620;662;46014;-74
2023/01/22 12:55:01;;;;;;;;;0.00;0.00;;;;;20.59;38.14;101219.50;146612;610;49012;-75
2023/01/22 12:57:57;;;;;;;;;0.67;0.33;;;;;20.50;38.10;101185.06;146622;624;47010;-75
2023/01/22 13:01:37;;;;;;;;;0.00;0.00;;;;;20.49;39.37;101127.94;146614;577;48012;-75
2023/01/22 13:04:47;;;;;;;;;1.00;0.00;;;;;21.29;39.62;101224.19;146624;565;47010;-76
2023/01/22 13:07:45;;;;;;;;;2.00;1.00;;;;;21.49;34.78;101228.00;146612;632;48016;-75
2023/01/22 13:10:40;;;;;;;;;0.33;0.00;;;;;21.47;34.30;101229.75;146622;636;48010;-75
2023/01/22 13:13:59;;;;;;;;;0.00;0.00;;;;;21.33;38.92;101225.97;146613;643;47012;-76
2023/01/22 13:17:24;;;;;;;;;0.00;0.00;;;;;21.25;38.63;101225.00;146623;603;46020;-76
2023/01/22 13:20:51;;;;;;;;;0.00;0.00;;;;;21.12;35.77;101223.87;146615;580;48012;-77
2023/01/22 13:23:47;;;;;;;;;0.00;0.00;;;;;20.92;37.12;101229.72;146622;569;46020;-76
2023/01/22 13:26:52;;;;;;;;;0.33;0.00;;;;;21.03;38.16;101231.66;146619;634;46016;-75
2023/01/22 13:29:56;;;;;;;;;0.67;0.00;;;;;20.77;37.24;101161.81;146618;581;47021;-77
2023/01/22 13:32:57;;;;;;;;;0.00;0.00;;;;;21.14;35.77;101240.63;146616;598;46016;-76
2023/01/22 13:36:00;;;;;;;;;3.33;2.67;;;;;20.64;35.18;101245.94;146615;576;48025;-74
2023/01/22 13:39:00;;;;;;;;;2.00;1.00;;;;;19.95;36.89;101241.91;146619;613;46016;-76
2023/01/22 13:42:03;;;;;;;;;1.33;0.33;;;;;19.55;37.11;101239.22;146622;563;46010;-76
2023/01/22 13:45:36;;;;;;;;;6.00;5.33;;;;;19.36;39.60;101239.66;146622;592;46017;-76
2023/01/22 13:48:34;;;;;;;;;0.67;0.00;;;;;19.44;37.83;101235.50;146622;617;46020;-76
2023/01/22 13:51:43;;;;;;;;;1.00;0.00;;;;;19.20;38.70;101242.78;146618;576;46012;-74
2023/01/22 13:54:46;;;;;;;;;0.00;0.00;;;;;18.87;39.04;101230.56;146623;603;46020;-74
2023/01/22 13:57:40;;;;;;;;;1.33;1.00;;;;;18.10;38.67;101160.25;146608;602;48912;-75
2023/01/22 14:00:39;;;;;;;;;0.67;0.00;;;;;18.32;40.18;101231.72;146613;607;49010;-75
2023/01/22 14:03:44;;;;;;;;;0.00;0.00;;;;;18.14;41.99;101232.09;146611;580;48016;-76
2023/01/22 14:06:53;;;;;;;;;0.00;0.00;;;;;17.97;41.76;101242.06;146618;588;48020;-75
2023/01/22 14:09:45;;;;;;;;;0.00;0.00;;;;;17.85;41.59;101239.09;146616;673;49012;-76
2023/01/22 14:12:40;;;;;;;;;0.00;0.00;;;;;17.74;41.75;101237.00;146621;566;46020;-76
2023/01/22 14:15:35;;;;;;;;;0.33;0.33;;;;;17.74;42.02;101233.50;146619;661;46016;-75
2023/01/22 14:18:45;;;;;;;;;0.33;0.00;;;;;17.78;42.73;101227.53;146623;631;46020;-75
2023/01/22 14:21:42;;;;;;;;;0.00;0.00;;;;;17.86;42.72;101235.66;146616;657;46017;-76
2023/01/22 14:24:39;;;;;;;;;2.00;1.00;;;;;17.90;42.35;101227.00;146623;622;46010;-74
2023/01/22 14:27:55;;;;;;;;;3.00;2.00;;;;;18.08;41.43;101229.28;146620;590;46016;-74
2023/01/22 14:30:51;;;;;;;;;0.33;0.00;;;;;18.02;41.17;101226.47;146627;611;46020;-76